createdAt,value
2019-02-25T00:03:40.339Z,26.53
2019-02-25T00:08:41.908Z,22.30
2019-02-25T00:13:43.493Z,18.97
2019-02-25T00:18:45.188Z,25.10
2019-02-25T00:23:46.875Z,20.33
2019-02-25T00:28:48.555Z,22.50
2019-02-25T00:33:50.200Z,22.87
2019-02-25T00:38:51.960Z,24.70
2019-02-25T00:43:53.569Z,24.20
2019-02-25T00:48:55.110Z,21.17
2019-02-25T00:53:56.660Z,20.60
2019-02-25T00:58:58.467Z,22.23
2019-02-25T01:04:00.024Z,20.07
2019-02-25T01:09:01.976Z,21.47
2019-02-25T01:14:05.427Z,20.10
2019-02-25T01:19:06.987Z,21.17
2019-02-25T01:24:09.564Z,20.57
2019-02-25T01:29:11.180Z,23.57
2019-02-25T01:34:13.009Z,20.23
2019-02-25T01:39:14.559Z,20.97
2019-02-25T01:44:16.114Z,20.53
2019-02-25T01:49:17.667Z,21.40
2019-02-25T01:54:21.126Z,23.47
2019-02-25T01:59:23.364Z,24.27
2019-02-25T02:04:25.222Z,24.00
2019-02-25T02:09:26.763Z,23.57
2019-02-25T02:14:28.315Z,24.27
2019-02-25T02:19:29.903Z,25.70
2019-02-25T02:24:31.452Z,26.17
2019-02-25T02:29:33.072Z,24.07
2019-02-25T02:34:34.612Z,25.40
2019-02-25T02:39:36.159Z,25.50
2019-02-25T02:44:38.112Z,25.23
2019-02-25T02:49:39.707Z,28.53
2019-02-25T02:54:41.254Z,28.37
2019-02-25T02:59:42.901Z,26.40
2019-02-25T03:04:44.452Z,24.60
2019-02-25T03:09:46.012Z,26.00
2019-02-25T03:14:47.563Z,24.67
2019-02-25T03:19:49.151Z,25.30
2019-02-25T03:24:50.748Z,25.87
2019-02-25T03:29:52.272Z,23.67
2019-02-25T03:34:53.915Z,25.90
2019-02-25T03:39:55.472Z,23.13
2019-02-25T03:44:57.027Z,24.90
2019-02-25T03:49:58.637Z,24.03
2019-02-25T03:55:00.296Z,22.07
2019-02-25T04:00:09.363Z,22.87
2019-02-25T04:05:11.016Z,20.80
2019-02-25T04:10:13.671Z,20.17
2019-02-25T04:15:19.127Z,20.40
2019-02-25T04:20:20.893Z,19.37
2019-02-25T04:25:22.440Z,20.10
2019-02-25T04:30:23.987Z,21.03
2019-02-25T04:35:25.540Z,19.73
2019-02-25T04:40:27.088Z,21.47
2019-02-25T04:45:28.633Z,21.93
2019-02-25T04:50:30.256Z,21.90
2019-02-25T04:55:31.810Z,21.07
2019-02-25T05:00:33.445Z,21.60
2019-02-25T05:05:34.996Z,23.23
2019-02-25T05:10:36.555Z,19.40
2019-02-25T05:15:38.107Z,20.47
2019-02-25T05:20:40.695Z,24.70
2019-02-25T05:25:42.242Z,29.43
2019-02-25T05:30:43.789Z,25.37
2019-02-25T05:35:45.381Z,26.47
2019-02-25T05:40:46.904Z,27.47
2019-02-25T05:45:48.595Z,20.50
2019-02-25T05:50:50.164Z,27.07
2019-02-25T05:55:51.758Z,25.17
2019-02-25T06:00:54.423Z,24.00
2019-02-25T06:05:55.976Z,25.77
2019-02-25T06:10:57.540Z,24.83
2019-02-25T06:15:59.108Z,23.10
2019-02-25T06:21:00.719Z,22.73
2019-02-25T06:26:02.380Z,24.90
2019-02-25T06:31:03.929Z,24.87
2019-02-25T06:36:05.484Z,23.70
2019-02-25T06:41:07.153Z,27.03
2019-02-25T06:46:08.701Z,24.43
2019-02-25T06:51:10.264Z,23.57
2019-02-25T06:56:11.881Z,22.00
2019-02-25T07:01:13.489Z,21.33
2019-02-25T07:06:22.452Z,22.33
2019-02-25T07:11:25.908Z,17.70
2019-02-25T07:16:47.548Z,18.00
2019-02-25T07:22:10.009Z,17.13
2019-02-25T07:27:22.437Z,15.67
2019-02-25T07:32:25.886Z,20.73
2019-02-25T07:37:27.434Z,19.70
2019-02-25T07:42:40.023Z,15.40
2019-02-25T07:47:43.480Z,18.07
2019-02-25T07:52:47.667Z,14.90
2019-02-25T07:57:51.158Z,14.47
2019-02-25T08:03:03.831Z,15.57
2019-02-25T08:08:10.213Z,18.10
2019-02-25T08:13:16.495Z,14.73
2019-02-25T08:18:27.004Z,20.00
2019-02-25T08:23:39.368Z,17.27
2019-02-25T08:28:54.849Z,14.53
2019-02-25T08:33:58.354Z,12.87
2019-02-25T08:39:04.806Z,15.30
2019-02-25T08:44:11.811Z,15.20
2019-02-25T08:49:15.359Z,14.17
2019-02-25T08:54:17.015Z,14.07
2019-02-25T08:59:18.813Z,14.43
2019-02-25T09:04:21.486Z,15.80
2019-02-25T09:09:23.036Z,11.33
2019-02-25T09:14:24.598Z,14.93
2019-02-25T09:19:26.211Z,16.40
2019-02-25T09:24:27.767Z,15.37
2019-02-25T09:29:29.423Z,16.37
2019-02-25T09:34:30.982Z,19.47
2019-02-25T09:39:32.534Z,21.77
2019-02-25T09:44:34.095Z,15.40
2019-02-25T09:49:36.093Z,23.93
2019-02-25T09:54:37.644Z,20.23
2019-02-25T09:59:39.197Z,20.30
2019-02-25T10:04:40.906Z,18.80
2019-02-25T10:09:43.447Z,20.17
2019-02-25T10:14:45.025Z,19.37
2019-02-25T10:19:46.577Z,23.23
2019-02-25T10:24:48.133Z,29.40
2019-02-25T10:29:49.797Z,28.60
2019-02-25T10:34:51.387Z,29.47
2019-02-25T10:39:52.935Z,25.47
2019-02-25T10:44:54.597Z,28.17
2019-02-25T10:49:57.049Z,29.57
2019-02-25T10:54:59.599Z,21.87
2019-02-25T11:00:02.894Z,24.70
2019-02-25T11:05:07.055Z,22.70
2019-02-25T11:10:28.119Z,25.27
2019-02-25T11:15:31.976Z,22.50
2019-02-25T11:20:35.353Z,23.77
2019-02-25T11:25:37.307Z,23.93
2019-02-25T11:30:39.275Z,21.80
2019-02-25T11:35:43.142Z,23.13
2019-02-25T11:40:44.576Z,20.80
2019-02-25T11:45:46.122Z,25.30
2019-02-25T11:50:48.177Z,23.40
2019-02-25T11:55:49.836Z,22.40
2019-02-25T12:00:51.436Z,23.70
2019-02-25T12:05:53.133Z,21.67
2019-02-25T12:10:54.688Z,24.40
2019-02-25T12:15:56.448Z,26.00
2019-02-25T12:20:58.400Z,21.80
2019-02-25T12:25:59.965Z,22.87
2019-02-25T12:31:01.522Z,22.73
2019-02-25T12:36:04.554Z,27.43
2019-02-25T12:41:06.116Z,23.03
2019-02-25T12:46:07.655Z,23.77
2019-02-25T12:51:09.334Z,23.13
2019-02-25T12:56:11.880Z,24.73
2019-02-25T13:01:13.480Z,26.83
2019-02-25T13:06:15.221Z,24.77
2019-02-25T13:11:16.779Z,25.10
2019-02-25T13:16:18.323Z,25.47
2019-02-25T13:21:19.974Z,24.77
2019-02-25T13:26:21.548Z,27.53
2019-02-25T13:31:23.113Z,26.33
2019-02-25T13:36:24.730Z,27.03
2019-02-25T13:41:26.330Z,26.50
2019-02-25T13:46:27.987Z,24.57
2019-02-25T13:51:29.543Z,28.43
2019-02-25T13:56:31.108Z,30.77
2019-02-25T14:01:32.708Z,31.07
2019-02-25T14:06:34.387Z,30.83
2019-02-25T14:11:35.947Z,29.60
2019-02-25T14:16:37.599Z,24.97
2019-02-25T14:21:39.167Z,25.13
2019-02-25T14:26:40.966Z,27.57
2019-02-25T14:31:42.731Z,29.77
2019-02-25T14:36:46.465Z,26.23
2019-02-25T14:41:48.438Z,28.10
2019-02-25T14:46:50.291Z,30.20
2019-02-25T14:51:52.042Z,28.47
2019-02-25T14:56:54.748Z,23.73
2019-02-25T15:01:59.059Z,28.07
2019-02-25T15:07:00.860Z,27.40
2019-02-25T15:12:04.155Z,30.33
2019-02-25T15:17:07.832Z,28.43
2019-02-25T15:22:09.572Z,25.87
2019-02-25T15:27:11.512Z,27.90
2019-02-25T15:32:14.960Z,26.83
2019-02-25T15:37:16.744Z,29.70
2019-02-25T15:42:18.504Z,28.50
2019-02-25T15:47:20.062Z,26.40
2019-02-25T15:52:23.284Z,31.30
2019-02-25T15:57:26.400Z,33.83
2019-02-25T16:02:28.671Z,37.73
2019-02-25T16:07:31.712Z,36.40
2019-02-25T16:12:36.005Z,34.17
2019-02-25T16:17:37.671Z,35.63
2019-02-25T16:22:40.777Z,45.03
2019-02-25T16:27:43.351Z,56.13
2019-02-25T16:32:46.685Z,45.77
2019-02-25T16:37:50.817Z,59.00
2019-02-25T16:42:56.983Z,56.20
2019-02-25T16:47:57.011Z,47.87
2019-02-25T16:52:58.735Z,43.77
2019-02-25T16:58:01.796Z,48.73
2019-02-25T17:03:06.112Z,54.77
2019-02-25T17:08:10.815Z,57.30
2019-02-25T17:13:14.872Z,54.07
2019-02-25T17:18:17.283Z,55.83
2019-02-25T17:23:19.077Z,53.40
2019-02-25T17:28:22.313Z,59.50
2019-02-25T17:33:25.807Z,60.07
2019-02-25T17:38:28.981Z,53.27
2019-02-25T17:43:32.063Z,55.57
2019-02-25T17:48:34.541Z,57.50
2019-02-25T17:53:36.195Z,58.27
2019-02-25T17:58:38.240Z,55.73
2019-02-25T18:03:42.258Z,54.33
2019-02-25T18:08:45.284Z,58.00
2019-02-25T18:13:48.939Z,61.10
2019-02-25T18:18:52.554Z,61.57
2019-02-25T18:23:55.209Z,59.73
2019-02-25T18:28:57.156Z,59.17
2019-02-25T18:33:59.000Z,61.40
2019-02-25T18:39:00.648Z,56.57
2019-02-25T18:44:02.690Z,57.67
2019-02-25T18:49:05.637Z,52.10
2019-02-25T18:54:10.185Z,51.90
2019-02-25T18:59:15.516Z,55.67
2019-02-25T19:04:17.564Z,53.23
2019-02-25T19:09:22.744Z,55.73
2019-02-25T19:14:26.131Z,55.67
2019-02-25T19:19:27.912Z,51.60
2019-02-25T19:24:29.564Z,50.53
2019-02-25T19:29:31.220Z,48.00
2019-02-25T19:34:32.919Z,48.23
2019-02-25T19:39:35.413Z,47.37
2019-02-25T19:44:38.561Z,45.97
2019-02-25T19:49:41.314Z,48.10
2019-02-25T19:54:45.931Z,43.10
2019-02-25T19:59:50.710Z,45.77
2019-02-25T20:04:52.072Z,39.00
2019-02-25T20:09:55.261Z,44.23
2019-02-25T20:14:57.335Z,42.47
2019-02-25T20:19:59.185Z,41.67
2019-02-25T20:25:00.879Z,44.27
2019-02-25T20:30:07.245Z,40.13
2019-02-25T20:35:13.944Z,38.93
2019-02-25T20:40:19.116Z,36.47
2019-02-25T20:45:35.294Z,37.67
2019-02-25T20:50:37.236Z,38.33
2019-02-25T20:55:39.926Z,41.03
2019-02-25T21:00:42.431Z,39.43
2019-02-25T21:05:45.105Z,30.87
2019-02-25T21:10:47.346Z,35.77
2019-02-25T21:15:48.893Z,39.90
2019-02-25T21:20:53.632Z,38.70
2019-02-25T21:25:57.423Z,39.90
2019-02-25T21:30:58.861Z,30.00
2019-02-25T21:36:00.410Z,28.87
2019-02-25T21:41:02.054Z,35.33
2019-02-25T21:46:03.815Z,31.20
2019-02-25T21:51:07.784Z,37.33
2019-02-25T21:56:09.220Z,41.17
2019-02-25T22:01:11.022Z,36.67
2019-02-25T22:06:12.715Z,33.27
2019-02-25T22:11:17.192Z,36.60
2019-02-25T22:16:17.983Z,35.00
2019-02-25T22:21:21.157Z,32.30
2019-02-25T22:26:28.389Z,31.10
2019-02-25T22:31:26.418Z,28.60
2019-02-25T22:36:27.969Z,32.80
2019-02-25T22:41:29.564Z,46.00
2019-02-25T22:46:32.532Z,33.20
2019-02-25T22:51:35.360Z,30.77
2019-02-25T22:56:38.043Z,31.73
2019-02-25T23:01:43.000Z,32.37
2019-02-25T23:06:46.407Z,30.90
2019-02-25T23:11:50.479Z,35.23
2019-02-25T23:16:52.099Z,32.33
2019-02-25T23:21:53.647Z,30.80
2019-02-25T23:26:57.353Z,29.67
2019-02-25T23:32:01.772Z,33.03
2019-02-25T23:37:02.206Z,32.30
2019-02-25T23:42:06.613Z,33.53
2019-02-25T23:47:08.960Z,28.27
2019-02-25T23:52:10.824Z,32.90
2019-02-25T23:57:16.992Z,28.37
